Thunder Bay Airport
CYQT : now visible

Airfield :











YOU CAN JOIN US ON...

 
LOGIN :

Register | Disclaimer

   EN    FR    IT 

 









Legend :    VFR   Marginal VFR   IFR   Intensive IFR   Very Intensive IFR
Visi :
Ceiling :
>= 8 km
>= 3000ft
5 to 8 km
1000 to 3000 ft
1500m to 5 km
500 to 1000 ft
800 to 1500m
200 to 500 ft
< 800m
< 200 ft
Symbols :   Thunderstorms  Fog  Heavy snow  Heavy precipitations  Wind > 20 kt






- Airport Elevation : 653 ft
- IATA code : YQT


CYQT - Thunder Bay

CURRENT METAR :
  • 071652Z 32011G19KT 280V340 20SM BKN042 07/M03 A3007 RMK SC7 CU ASOCTD SLP191

EXPIRED METARs :
  • 071600Z 30010G19KT 20SM -SHRA BKN046 BKN075 05/M03 A3006 RMK SC6AC1 CU ASOCTD VIS NE 6 SLP190
  • 071546Z 32014KT 290V060 20SM -SHRA BKN043 BKN075 06/M03 A3006 RMK CU5AC2 VIS N 10 SLP189
  • 071500Z 03007KT 340V050 20SM VCSH SCT026 BKN055 05/M01 A3006 RMK CU4SC2 VIS NE 5 SLP188
  • 071452Z 36006G17KT 20SM VCSH SCT026 BKN070 BKN250 04/M02 A3006 RMK CU4AC1CI1 VIS NE 3 SLP189
  • 071429Z 33015G20KT 20SM -SHRA BKN032 BKN100 05/M01 A3006 RMK CU5AC1 SLP188
  • 071400Z 34011G21KT 20SM VCSH SCT025 BKN090 BKN250 05/M01 A3006 RMK CU3AC2CI1 SH NW-E VIS NE 4 SLP188

TAF TAF CYQT
Valid from the 07 at 14:00 until the 08 at 02:00 UTC


071338Z 0714/0802 32008KT P6SM SCT020 BKN100
TEMPO 0714/0716 P6SM -SHRA BKN020 OVC100
FM071600 32010KT P6SM BKN060
BECMG 0716/0718 32010G20KT
BECMG 0800/0802 33008KT RMK NXT FCST BY 072000Z
CZWG FIR / North America



MET'MAP, your aeronautical weather chart ! - Copyright ORBIFLY December 2007 - Disclaimer

ORBIFLY MET'MAP TEAM :

Programming & Development : Alexandra Zaïnal
Concept & original design : Baudouin d'Aumeries
Assistance for programming : Marc-Olivier Méhu
Technical & hardware support : Manuel Goepfert

Contact : metmap@orbifly.com




SOURCES & CREDITS :

   NOAA       Earth
Advisory